Time;durP1;ratioP1;P1;durP2;ratioP2;P2;SDS_P1;SDS_P2;PMS_P1;PMS_P2;Temp;Humidity;BMP_temperature;BMP_pressure;BME280_temperature;BME280_humidity;BME280_pressure;Samples;Min_cycle;Max_cycle;Signal;HPM_P1;HPM_P2
2023/09/11 00:01:31;;;;;;;6.20;4.70;;;20.90;99.90;;;;;;5079582;28;20028;-84
2023/09/11 00:03:57;;;;;;;6.18;4.10;;;21.00;99.90;;;;;;5067036;28;20111;-83
2023/09/11 00:06:24;;;;;;;5.72;4.38;;;21.00;99.90;;;;;;5071811;28;20024;-84
2023/09/11 00:08:51;;;;;;;6.43;3.88;;;21.10;99.90;;;;;;5054645;28;20046;-83
2023/09/11 00:11:17;;;;;;;6.43;4.88;;;21.10;99.90;;;;;;5084330;28;20504;-82
2023/09/11 00:13:43;;;;;;;6.32;4.32;;;21.20;99.90;;;;;;5075243;28;20036;-83
2023/09/11 00:16:08;;;;;;;5.55;3.38;;;21.20;99.90;;;;;;5070619;28;20032;-81
2023/09/11 00:18:34;;;;;;;5.07;4.10;;;21.20;99.90;;;;;;5070670;28;20035;-82
2023/09/11 00:21:00;;;;;;;4.45;4.05;;;21.20;99.90;;;;;;5061497;28;20146;-81
2023/09/11 00:23:26;;;;;;;5.38;4.35;;;21.10;99.90;;;;;;5078984;28;20077;-84
2023/09/11 00:25:52;;;;;;;5.60;4.28;;;21.10;99.90;;;;;;5067158;28;20042;-81
2023/09/11 00:28:18;;;;;;;6.25;4.47;;;21.10;99.90;;;;;;5077888;28;20032;-83
2023/09/11 00:30:43;;;;;;;5.30;4.55;;;21.00;99.90;;;;;;5067594;28;20064;-82
2023/09/11 00:33:09;;;;;;;5.65;5.05;;;21.00;99.90;;;;;;5070129;28;20577;-82
2023/09/11 00:35:35;;;;;;;5.57;4.82;;;20.90;99.90;;;;;;5068116;28;20047;-83
2023/09/11 00:38:01;;;;;;;8.65;5.72;;;20.80;99.90;;;;;;5068783;28;20036;-82
2023/09/11 00:40:26;;;;;;;6.38;4.97;;;20.80;99.90;;;;;;5089551;28;20020;-86
2023/09/11 00:42:52;;;;;;;7.82;5.15;;;20.80;99.90;;;;;;5065765;28;20035;-83
2023/09/11 00:45:18;;;;;;;7.90;5.13;;;20.70;99.90;;;;;;5074899;28;20028;-82
2023/09/11 00:47:46;;;;;;;5.60;4.68;;;20.80;99.90;;;;;;5089911;28;20047;-85
2023/09/11 00:50:15;;;;;;;9.32;5.93;;;20.80;99.90;;;;;;5070810;28;20547;-83
2023/09/11 00:52:42;;;;;;;9.63;5.78;;;20.70;99.90;;;;;;5051387;28;20035;-82
2023/09/11 00:55:09;;;;;;;5.55;5.05;;;20.60;99.90;;;;;;5054163;28;20031;-80
2023/09/11 00:57:35;;;;;;;6.35;5.30;;;20.60;99.90;;;;;;5084508;28;20120;-83
2023/09/11 01:00:03;;;;;;;8.68;5.68;;;20.60;99.90;;;;;;5070320;28;20047;-83
2023/09/11 01:02:29;;;;;;;7.20;5.03;;;20.70;99.90;;;;;;5054483;28;20035;-82
2023/09/11 01:04:55;;;;;;;6.50;5.30;;;20.60;99.90;;;;;;5053431;28;20028;-83
2023/09/11 01:07:20;;;;;;;7.60;5.25;;;20.50;99.90;;;;;;5088484;28;20052;-81
2023/09/11 01:09:46;;;;;;;5.43;4.93;;;20.40;99.90;;;;;;5069793;28;20081;-83
2023/09/11 01:12:12;;;;;;;5.82;4.50;;;20.40;99.90;;;;;;5073904;28;20052;-82
2023/09/11 01:14:38;;;;;;;6.63;4.82;;;20.40;99.90;;;;;;5088332;28;20024;-84
2023/09/11 01:17:13;;;;;;;8.10;5.57;;;20.30;99.90;;;;;;5076671;28;20032;-86
2023/09/11 01:20:16;;;;;;;6.82;5.68;;;20.30;99.90;;;;;;5053902;28;20055;-82
2023/09/11 01:23:16;;;;;;;6.60;5.72;;;20.20;99.90;;;;;;5068298;28;20032;-82
2023/09/11 01:26:03;;;;;;;6.28;5.25;;;20.10;99.90;;;;;;5086137;28;20067;-82
2023/09/11 01:28:57;;;;;;;7.22;6.07;;;20.20;99.90;;;;;;5083534;28;20119;-83
2023/09/11 01:31:24;;;;;;;5.93;5.32;;;20.20;99.90;;;;;;5068073;28;20111;-81
2023/09/11 01:33:53;;;;;;;7.43;6.07;;;20.10;99.90;;;;;;5060103;28;20024;-83
2023/09/11 01:36:19;;;;;;;8.38;6.40;;;20.10;99.90;;;;;;5089146;28;20532;-84
2023/09/11 01:38:45;;;;;;;6.93;5.93;;;20.10;99.90;;;;;;5053957;28;20119;-84
2023/09/11 01:41:13;;;;;;;7.15;5.82;;;20.00;99.90;;;;;;5052305;28;20487;-84
2023/09/11 01:43:41;;;;;;;8.20;6.47;;;19.90;99.90;;;;;;5086426;28;20038;-83
2023/09/11 01:46:07;;;;;;;8.40;5.75;;;19.90;99.90;;;;;;5084063;28;20032;-84
2023/09/11 01:48:35;;;;;;;7.40;6.55;;;19.90;99.90;;;;;;5058329;28;20068;-81
2023/09/11 01:51:03;;;;;;;7.97;5.53;;;19.90;99.90;;;;;;5052919;28;20036;-81
2023/09/11 01:53:29;;;;;;;6.65;5.57;;;19.80;99.90;;;;;;5053333;28;20028;-82
2023/09/11 01:55:57;;;;;;;6.10;5.53;;;19.80;99.90;;;;;;5056750;28;20032;-81
2023/09/11 01:58:23;;;;;;;6.70;5.72;;;19.80;99.90;;;;;;5082573;28;20038;-81
2023/09/11 02:00:49;;;;;;;7.07;6.30;;;19.80;99.90;;;;;;5071661;28;20103;-83
2023/09/11 02:03:16;;;;;;;8.82;6.25;;;19.70;99.90;;;;;;5073674;28;20110;-81
2023/09/11 02:05:42;;;;;;;6.57;5.82;;;19.80;99.90;;;;;;5065484;28;20434;-81
2023/09/11 02:08:08;;;;;;;6.55;5.65;;;19.70;99.90;;;;;;5073916;28;20483;-83
2023/09/11 02:10:34;;;;;;;6.70;5.72;;;19.70;99.90;;;;;;5070218;28;20122;-83
2023/09/11 02:12:59;;;;;;;7.13;5.95;;;19.60;99.90;;;;;;5070048;28;20045;-82
2023/09/11 02:15:25;;;;;;;7.72;6.13;;;19.60;99.90;;;;;;5057216;28;20074;-80
2023/09/11 02:17:51;;;;;;;7.25;5.95;;;19.60;99.90;;;;;;5056613;28;20531;-83
2023/09/11 02:20:16;;;;;;;6.50;5.55;;;19.50;99.90;;;;;;5064371;28;20082;-82
2023/09/11 02:22:42;;;;;;;6.07;5.47;;;19.50;99.90;;;;;;5067356;28;20460;-80
2023/09/11 02:25:08;;;;;;;6.93;6.10;;;19.50;99.90;;;;;;5068772;28;20073;-83
2023/09/11 02:27:33;;;;;;;8.63;5.85;;;19.50;99.90;;;;;;5062253;28;20024;-82
2023/09/11 02:29:59;;;;;;;5.78;5.28;;;19.50;99.90;;;;;;5056802;28;20028;-82
2023/09/11 02:32:25;;;;;;;6.78;6.05;;;19.50;99.90;;;;;;5064518;28;20392;-82
2023/09/11 02:34:51;;;;;;;6.20;5.60;;;19.50;99.90;;;;;;5065462;28;20031;-83
2023/09/11 02:37:16;;;;;;;6.55;5.85;;;19.50;99.90;;;;;;5054817;28;20020;-81
2023/09/11 02:39:42;;;;;;;6.95;6.25;;;19.50;99.90;;;;;;5069403;28;20035;-81
2023/09/11 02:42:08;;;;;;;7.70;5.90;;;19.50;99.90;;;;;;5069059;28;20052;-80
2023/09/11 02:44:34;;;;;;;8.52;6.05;;;19.50;99.90;;;;;;5073737;28;20549;-82
2023/09/11 02:46:59;;;;;;;7.90;5.75;;;19.50;99.90;;;;;;5056853;28;20161;-85
2023/09/11 02:49:25;;;;;;;6.03;5.53;;;19.50;99.90;;;;;;5056602;28;20057;-83
2023/09/11 02:51:51;;;;;;;6.75;6.10;;;19.40;99.90;;;;;;5091561;28;20100;-82
2023/09/11 02:54:17;;;;;;;7.38;5.63;;;19.40;99.90;;;;;;5069548;28;20020;-82
2023/09/11 02:56:42;;;;;;;8.60;6.32;;;19.40;99.90;;;;;;5059513;28;20587;-87
2023/09/11 02:59:08;;;;;;;7.82;6.03;;;19.40;99.90;;;;;;5091222;28;20093;-83
2023/09/11 03:01:34;;;;;;;5.80;5.28;;;19.40;99.90;;;;;;5073413;28;20042;-82
2023/09/11 03:04:00;;;;;;;7.70;6.13;;;19.40;99.90;;;;;;5080223;28;20074;-82
2023/09/11 03:06:25;;;;;;;6.13;5.45;;;19.50;99.90;;;;;;5054199;28;20400;-84
2023/09/11 03:08:51;;;;;;;6.28;5.65;;;19.50;99.90;;;;;;5071362;28;20111;-82
2023/09/11 03:11:18;;;;;;;7.00;6.32;;;19.50;99.90;;;;;;5068274;28;20059;-82
2023/09/11 03:13:44;;;;;;;6.65;6.03;;;19.50;99.90;;;;;;5072792;28;20037;-84
2023/09/11 03:16:12;;;;;;;7.07;6.32;;;19.50;99.90;;;;;;5072890;28;20534;-83
2023/09/11 03:18:39;;;;;;;10.07;5.87;;;19.50;99.90;;;;;;5066779;28;20039;-82
2023/09/11 03:21:07;;;;;;;7.28;5.60;;;19.40;99.90;;;;;;5068450;28;20298;-82
2023/09/11 03:23:33;;;;;;;8.38;6.00;;;19.40;99.90;;;;;;5055393;28;20157;-83
2023/09/11 03:25:59;;;;;;;7.30;6.55;;;19.40;99.90;;;;;;5079360;28;20457;-82
2023/09/11 03:28:30;;;;;;;8.88;6.25;;;19.40;99.90;;;;;;5054612;28;20106;-83
2023/09/11 03:30:56;;;;;;;9.73;6.75;;;19.40;99.90;;;;;;5088443;28;20032;-81
2023/09/11 03:33:22;;;;;;;8.00;7.03;;;19.40;99.90;;;;;;5069574;28;20024;-81
2023/09/11 03:35:49;;;;;;;8.40;7.60;;;19.40;99.90;;;;;;5067633;28;20433;-83
2023/09/11 03:38:15;;;;;;;7.68;6.60;;;19.40;99.90;;;;;;5054463;28;20099;-82
2023/09/11 03:40:45;;;;;;;7.55;6.82;;;19.30;99.90;;;;;;5058214;28;20027;-83
2023/09/11 03:43:11;;;;;;;7.82;6.95;;;19.30;99.90;;;;;;5067783;28;20025;-82
2023/09/11 03:45:37;;;;;;;10.30;7.85;;;19.30;99.90;;;;;;5072111;28;20145;-83
2023/09/11 03:48:03;;;;;;;10.75;7.97;;;19.30;99.90;;;;;;5070566;28;20067;-82
2023/09/11 03:50:28;;;;;;;10.82;8.10;;;19.30;99.90;;;;;;5057286;28;20043;-83
2023/09/11 03:52:55;;;;;;;8.13;7.25;;;19.20;99.90;;;;;;5067296;28;20115;-82
2023/09/11 03:55:21;;;;;;;7.93;7.00;;;19.20;99.90;;;;;;5067242;28;20075;-82
2023/09/11 03:57:47;;;;;;;8.50;7.60;;;19.20;99.90;;;;;;5055843;28;20162;-84
2023/09/11 04:00:13;;;;;;;9.18;8.27;;;19.10;99.90;;;;;;5055609;28;20107;-82
2023/09/11 04:02:39;;;;;;;10.27;8.05;;;19.10;99.90;;;;;;5071762;28;20156;-83
2023/09/11 04:05:05;;;;;;;9.95;7.18;;;19.10;99.90;;;;;;5054643;28;20089;-82
2023/09/11 04:07:32;;;;;;;9.88;7.30;;;19.00;99.90;;;;;;5070357;28;20031;-82
2023/09/11 04:09:58;;;;;;;9.48;7.18;;;19.00;99.90;;;;;;5088801;28;20047;-82
2023/09/11 04:12:24;;;;;;;8.93;7.55;;;19.10;99.90;;;;;;5054573;28;20040;-80
2023/09/11 04:14:50;;;;;;;10.48;8.13;;;19.10;99.90;;;;;;5042944;28;20143;-82
2023/09/11 04:17:16;;;;;;;9.10;7.55;;;19.10;99.90;;;;;;5038066;28;20100;-83
2023/09/11 04:19:43;;;;;;;9.43;8.10;;;19.10;99.90;;;;;;5051007;28;20111;-80
2023/09/11 04:22:09;;;;;;;9.10;8.20;;;19.10;99.90;;;;;;5050937;28;20215;-82
2023/09/11 04:24:36;;;;;;;9.32;8.45;;;19.10;99.90;;;;;;5050392;28;20040;-82
2023/09/11 04:27:02;;;;;;;9.57;8.70;;;19.00;99.90;;;;;;5051103;28;20028;-84
2023/09/11 04:29:31;;;;;;;10.07;9.10;;;19.00;99.90;;;;;;5041049;28;20020;-83
2023/09/11 04:31:57;;;;;;;9.45;8.50;;;19.00;99.90;;;;;;5067900;28;20033;-80
2023/09/11 04:34:24;;;;;;;9.55;8.57;;;18.90;99.90;;;;;;5034772;28;20111;-82
2023/09/11 04:36:50;;;;;;;9.88;8.88;;;18.90;99.90;;;;;;5067477;28;22395;-83
2023/09/11 04:39:16;;;;;;;10.27;8.10;;;18.90;99.90;;;;;;5050891;28;20052;-82
2023/09/11 04:41:42;;;;;;;9.45;8.40;;;19.00;99.90;;;;;;5052747;28;20029;-89
2023/09/11 04:44:08;;;;;;;8.73;7.90;;;18.90;99.90;;;;;;5037035;28;20025;-88
2023/09/11 04:46:34;;;;;;;10.10;7.57;;;18.90;99.90;;;;;;5040830;28;20016;-89
2023/09/11 04:49:00;;;;;;;9.38;7.70;;;18.90;99.90;;;;;;5034342;28;20057;-82
2023/09/11 04:51:26;;;;;;;11.48;9.02;;;18.90;99.90;;;;;;5067180;28;20062;-81
2023/09/11 04:53:52;;;;;;;8.75;7.88;;;18.90;99.90;;;;;;5038674;28;20055;-81
2023/09/11 04:56:17;;;;;;;8.65;7.75;;;18.90;99.90;;;;;;5039911;28;20456;-82
2023/09/11 04:58:43;;;;;;;9.07;8.27;;;18.90;99.90;;;;;;5039091;28;20115;-88
2023/09/11 05:01:10;;;;;;;8.75;7.90;;;18.90;99.90;;;;;;5056561;28;20115;-85
2023/09/11 05:03:37;;;;;;;10.07;8.35;;;18.90;99.90;;;;;;5047597;28;20522;-83
2023/09/11 05:06:03;;;;;;;8.73;7.72;;;18.90;99.90;;;;;;5044154;28;20527;-81
2023/09/11 05:08:29;;;;;;;9.93;8.40;;;18.90;99.90;;;;;;5033856;28;20123;-82
2023/09/11 05:10:55;;;;;;;9.68;8.75;;;18.90;99.90;;;;;;5043199;28;20123;-81
2023/09/11 05:13:21;;;;;;;10.38;9.13;;;18.90;99.90;;;;;;5064521;28;20127;-82
2023/09/11 05:15:48;;;;;;;10.13;8.70;;;18.90;99.90;;;;;;5069838;28;20100;-81
2023/09/11 05:18:14;;;;;;;11.18;9.00;;;18.90;99.90;;;;;;5067958;28;20024;-82
2023/09/11 05:20:40;;;;;;;11.13;8.77;;;18.90;99.90;;;;;;5052785;28;20379;-82
2023/09/11 05:23:07;;;;;;;9.88;8.52;;;18.90;99.90;;;;;;5061893;28;20016;-81
2023/09/11 05:25:34;;;;;;;9.85;8.85;;;18.90;99.90;;;;;;5053438;28;20541;-82
2023/09/11 05:28:00;;;;;;;9.52;8.18;;;18.90;99.90;;;;;;5087775;28;20078;-80
2023/09/11 05:30:26;;;;;;;11.18;8.98;;;19.00;99.90;;;;;;5067396;28;20044;-83
2023/09/11 05:32:52;;;;;;;11.98;9.75;;;19.00;99.90;;;;;;5052821;28;20032;-82
2023/09/11 05:35:20;;;;;;;9.30;8.40;;;19.00;99.90;;;;;;5073404;28;20024;-82
2023/09/11 05:37:45;;;;;;;8.63;7.78;;;19.00;99.90;;;;;;5082463;28;20024;-83
2023/09/11 05:40:11;;;;;;;10.88;8.00;;;19.10;99.90;;;;;;5068849;28;20032;-84
2023/09/11 05:42:37;;;;;;;9.23;8.25;;;19.10;99.90;;;;;;5053748;28;20035;-88
2023/09/11 05:45:03;;;;;;;9.55;8.38;;;19.20;99.90;;;;;;5057383;28;20069;-84
2023/09/11 05:47:29;;;;;;;9.13;8.32;;;19.20;99.90;;;;;;5069993;28;20476;-82
2023/09/11 05:50:00;;;;;;;9.60;8.63;;;19.20;99.90;;;;;;5064413;28;20053;-83
2023/09/11 05:52:26;;;;;;;10.20;9.10;;;19.30;99.90;;;;;;5070679;28;20028;-86
2023/09/11 05:54:52;;;;;;;10.77;9.45;;;19.40;99.90;;;;;;5064553;28;20028;-83
2023/09/11 05:57:17;;;;;;;10.00;9.02;;;19.50;99.90;;;;;;5054855;28;20494;-84
2023/09/11 05:59:43;;;;;;;10.07;9.07;;;19.50;99.90;;;;;;5087899;28;20024;-84
2023/09/11 06:02:09;;;;;;;11.13;8.93;;;19.60;99.90;;;;;;5053168;28;20020;-83
2023/09/11 06:04:34;;;;;;;10.68;8.88;;;19.70;99.90;;;;;;5069851;28;20114;-85
2023/09/11 06:07:00;;;;;;;9.93;8.85;;;19.80;99.90;;;;;;5049666;28;20412;-83
2023/09/11 06:09:26;;;;;;;10.15;8.90;;;19.90;99.90;;;;;;5069631;28;20089;-82
2023/09/11 06:11:52;;;;;;;10.30;9.25;;;20.00;99.90;;;;;;5052217;28;20496;-84
2023/09/11 06:14:18;;;;;;;11.27;9.95;;;20.10;99.90;;;;;;5067598;28;20119;-83
2023/09/11 06:16:44;;;;;;;11.73;10.00;;;20.10;99.90;;;;;;5082604;28;20035;-83
2023/09/11 06:19:09;;;;;;;9.85;8.95;;;20.20;99.90;;;;;;5085498;28;20039;-83
2023/09/11 06:21:35;;;;;;;12.13;9.23;;;20.20;99.90;;;;;;5066199;28;20109;-84
2023/09/11 06:24:01;;;;;;;9.70;8.80;;;20.30;99.90;;;;;;5065681;28;20046;-83
2023/09/11 06:26:27;;;;;;;10.65;9.38;;;20.40;99.90;;;;;;5065091;28;20031;-83
2023/09/11 06:28:55;;;;;;;13.40;10.75;;;20.40;99.90;;;;;;5061022;28;20032;-82
2023/09/11 06:31:22;;;;;;;10.13;8.77;;;20.50;99.90;;;;;;5055237;28;20047;-83
2023/09/11 06:33:48;;;;;;;9.77;8.82;;;20.60;99.90;;;;;;5049659;28;20085;-84
2023/09/11 06:36:14;;;;;;;10.77;9.18;;;20.70;99.90;;;;;;5081216;28;20456;-81
2023/09/11 06:38:40;;;;;;;10.77;9.68;;;20.80;99.90;;;;;;5069790;28;20442;-85
2023/09/11 06:41:06;;;;;;;9.65;8.68;;;20.90;99.90;;;;;;5072096;28;20032;-86
2023/09/11 06:43:32;;;;;;;11.15;9.13;;;21.00;99.90;;;;;;5056419;28;20025;-83
2023/09/11 06:45:57;;;;;;;11.65;8.60;;;21.10;99.90;;;;;;5050668;28;20580;-86
2023/09/11 06:48:23;;;;;;;10.25;9.25;;;21.30;99.90;;;;;;5070523;28;20024;-84
2023/09/11 06:50:53;;;;;;;9.75;8.80;;;21.40;99.90;;;;;;5068424;28;20398;-87
2023/09/11 06:53:19;;;;;;;8.68;7.38;;;21.40;99.90;;;;;;5052712;28;20028;-84
2023/09/11 06:55:48;;;;;;;9.07;8.05;;;21.60;99.90;;;;;;5072091;28;20084;-81
2023/09/11 06:58:14;;;;;;;11.07;8.95;;;21.60;99.90;;;;;;5072430;28;20029;-86
2023/09/11 07:00:41;;;;;;;9.57;8.23;;;21.70;99.90;;;;;;5055014;28;21224;-85
2023/09/11 07:03:07;;;;;;;9.75;8.75;;;21.80;99.90;;;;;;5048471;28;20054;-83
2023/09/11 07:05:34;;;;;;;8.30;7.43;;;21.90;99.90;;;;;;5070497;28;20059;-87
2023/09/11 07:08:00;;;;;;;9.90;8.48;;;21.90;99.90;;;;;;5071602;28;20121;-86
2023/09/11 07:10:26;;;;;;;9.57;8.60;;;22.10;99.90;;;;;;5050402;28;20582;-87
2023/09/11 07:12:51;;;;;;;9.75;8.65;;;22.10;99.90;;;;;;5049960;28;20044;-81
2023/09/11 07:15:17;;;;;;;8.82;8.02;;;22.10;99.90;;;;;;5052062;28;20029;-81
2023/09/11 07:17:44;;;;;;;8.52;6.72;;;22.00;99.90;;;;;;5033925;28;20143;-88
2023/09/11 07:20:12;;;;;;;10.45;7.78;;;22.20;99.90;;;;;;5049489;28;20052;-85
2023/09/11 07:22:38;;;;;;;9.13;8.23;;;22.30;99.90;;;;;;5038883;28;20040;-83
2023/09/11 07:25:04;;;;;;;7.82;7.07;;;22.40;99.90;;;;;;5052354;28;20036;-87
2023/09/11 07:27:35;;;;;;;7.20;6.25;;;22.60;99.90;;;;;;5034992;28;20078;-86
2023/09/11 07:30:03;;;;;;;9.40;6.90;;;22.50;99.90;;;;;;5029519;28;20044;-83
2023/09/11 07:32:30;;;;;;;6.97;6.22;;;22.50;99.90;;;;;;5030081;28;20055;-84
2023/09/11 07:34:56;;;;;;;8.85;5.28;;;22.60;99.90;;;;;;5031973;28;20033;-84
2023/09/11 07:37:22;;;;;;;7.78;5.63;;;22.80;99.90;;;;;;5031982;28;20436;-82
2023/09/11 07:39:48;;;;;;;8.90;6.28;;;23.00;99.90;;;;;;5046359;28;20033;-86
2023/09/11 07:42:13;;;;;;;11.00;6.75;;;23.00;99.90;;;;;;5041457;28;20401;-85
2023/09/11 07:44:39;;;;;;;5.90;4.95;;;23.10;99.90;;;;;;5031654;28;20107;-84
2023/09/11 07:47:05;;;;;;;6.65;4.60;;;23.20;99.90;;;;;;5049686;28;20112;-82
2023/09/11 07:49:30;;;;;;;7.05;5.35;;;23.30;99.90;;;;;;5032542;28;20033;-86
2023/09/11 07:51:56;;;;;;;7.10;5.05;;;23.40;99.90;;;;;;5049137;28;20040;-84
2023/09/11 07:54:22;;;;;;;8.43;5.57;;;23.50;99.90;;;;;;5039862;28;20060;-87
2023/09/11 07:56:48;;;;;;;6.20;5.60;;;23.60;99.90;;;;;;5051759;28;20028;-82
2023/09/11 07:59:13;;;;;;;8.27;4.88;;;23.60;99.90;;;;;;5051191;28;21180;-82
2023/09/11 08:01:39;;;;;;;8.18;5.70;;;23.80;99.90;;;;;;5051171;28;20575;-87
2023/09/11 08:04:05;;;;;;;5.63;5.05;;;23.80;99.90;;;;;;5053013;28;20028;-83
2023/09/11 08:06:31;;;;;;;8.90;5.28;;;24.10;99.90;;;;;;5042964;28;20036;-83
2023/09/11 08:09:03;;;;;;;6.45;5.75;;;24.30;99.90;;;;;;5068903;28;20044;-83
2023/09/11 08:11:30;;;;;;;5.90;5.28;;;24.40;99.90;;;;;;5068565;28;20038;-80
2023/09/11 08:13:56;;;;;;;5.05;4.28;;;24.70;99.90;;;;;;4971611;28;20398;-83
2023/09/11 08:16:22;;;;;;;6.22;5.43;;;24.90;99.90;;;;;;4987576;28;20072;-84
2023/09/11 08:18:48;;;;;;;8.13;5.57;;;24.90;99.90;;;;;;4966103;28;20026;-81
2023/09/11 08:21:14;;;;;;;8.40;6.63;;;25.30;99.90;;;;;;4969357;28;20560;-81
2023/09/11 08:23:44;;;;;;;6.35;5.35;;;25.20;99.90;;;;;;4969374;28;20501;-82
2023/09/11 08:26:10;;;;;;;9.55;5.35;;;25.20;99.90;;;;;;4952856;28;20050;-82
2023/09/11 08:28:37;;;;;;;7.90;6.38;;;25.40;99.90;;;;;;4968281;28;20076;-81
2023/09/11 08:31:03;;;;;;;7.47;6.72;;;25.20;99.90;;;;;;4952692;28;20042;-82
2023/09/11 08:33:29;;;;;;;9.60;7.50;;;25.00;99.90;;;;;;4985606;28;20479;-82
2023/09/11 08:35:55;;;;;;;8.35;7.20;;;24.90;99.90;;;;;;4983496;28;20045;-83
2023/09/11 08:38:21;;;;;;;12.93;8.20;;;25.10;99.90;;;;;;4986159;28;20102;-83
2023/09/11 08:40:46;;;;;;;6.97;6.28;;;25.00;99.90;;;;;;4967118;28;20548;-84
2023/09/11 08:43:13;;;;;;;7.15;6.28;;;25.10;99.90;;;;;;4952377;28;20038;-83
2023/09/11 08:45:39;;;;;;;6.53;5.93;;;25.60;99.90;;;;;;5048261;28;20030;-82
2023/09/11 08:48:09;;;;;;;10.23;8.88;;;25.60;99.90;;;;;;4961336;28;20019;-83
2023/09/11 08:50:39;;;;;;;8.18;6.82;;;25.40;99.90;;;;;;4985013;28;20073;-83
2023/09/11 08:53:05;;;;;;;7.70;5.28;;;25.90;99.90;;;;;;4982821;28;20066;-82
2023/09/11 08:55:33;;;;;;;8.10;6.25;;;25.90;99.90;;;;;;4967463;28;20061;-83
2023/09/11 08:58:04;;;;;;;9.40;6.90;;;26.10;99.90;;;;;;4966512;28;20030;-83
2023/09/11 09:00:31;;;;;;;9.00;7.28;;;26.00;99.90;;;;;;4962720;28;20031;-83
2023/09/11 09:03:00;;;;;;;13.80;11.27;;;25.80;99.90;;;;;;4964142;28;20394;-85
2023/09/11 09:05:26;;;;;;;11.63;9.95;;;25.30;99.90;;;;;;4951549;28;20075;-84
2023/09/11 09:07:52;;;;;;;10.63;8.40;;;25.20;99.90;;;;;;4984733;28;20081;-83
2023/09/11 09:10:18;;;;;;;5.30;4.80;;;25.50;99.90;;;;;;4975722;28;20466;-82
2023/09/11 09:12:45;;;;;;;9.90;5.90;;;26.20;99.90;;;;;;4983471;28;20097;-83
2023/09/11 09:15:12;;;;;;;5.65;4.78;;;26.60;99.90;;;;;;4986159;28;20045;-84
2023/09/11 09:17:38;;;;;;;9.05;6.63;;;26.60;99.90;;;;;;4984201;28;20094;-84
2023/09/11 09:20:04;;;;;;;10.30;7.97;;;26.30;99.90;;;;;;4981085;28;20093;-83
2023/09/11 09:22:30;;;;;;;10.55;8.20;;;26.40;99.90;;;;;;4965800;28;20030;-83
2023/09/11 09:24:56;;;;;;;14.48;8.88;;;26.20;99.90;;;;;;4952197;28;20069;-82
2023/09/11 09:27:28;;;;;;;15.75;9.88;;;25.90;99.90;;;;;;4967693;28;20030;-82
2023/09/11 09:29:54;;;;;;;12.07;8.63;;;25.70;99.90;;;;;;5047347;28;20049;-83
2023/09/11 09:32:19;;;;;;;8.25;6.30;;;25.70;99.90;;;;;;4981318;28;20026;-82
2023/09/11 09:34:54;;;;;;;7.00;5.82;;;26.00;99.90;;;;;;4964248;28;20335;-83
2023/09/11 09:37:21;;;;;;;5.25;4.78;;;26.50;99.90;;;;;;5048648;28;20381;-83
2023/09/11 09:39:50;;;;;;;5.80;4.57;;;26.90;99.90;;;;;;4951939;28;20026;-84
2023/09/11 09:42:16;;;;;;;14.05;8.23;;;27.20;99.90;;;;;;4967927;28;20076;-83
2023/09/11 09:44:52;;;;;;;11.00;8.30;;;26.50;99.90;;;;;;4975008;28;20038;-82
2023/09/11 09:47:19;;;;;;;12.73;9.60;;;26.50;99.90;;;;;;4984357;28;20117;-83
2023/09/11 09:49:56;;;;;;;10.90;7.38;;;26.20;99.90;;;;;;4968107;28;20026;-82
2023/09/11 09:52:28;;;;;;;6.93;6.00;;;26.40;99.90;;;;;;4963888;28;20038;-83
2023/09/11 09:54:58;;;;;;;6.25;5.45;;;26.70;99.90;;;;;;4967706;28;20050;-82
2023/09/11 09:57:26;;;;;;;6.70;4.55;;;27.30;99.90;;;;;;4963400;28;20060;-83
2023/09/11 09:59:53;;;;;;;10.48;7.03;;;27.50;99.90;;;;;;4984456;28;20030;-83
2023/09/11 10:02:26;;;;;;;16.75;10.88;;;26.90;99.90;;;;;;4950232;28;20060;-83
2023/09/11 10:04:56;;;;;;;14.18;9.57;;;26.50;99.90;;;;;;4983772;28;20029;-81
2023/09/11 10:07:42;;;;;;;7.70;6.88;;;26.40;99.90;;;;;;4951572;28;20034;-83
2023/09/11 10:10:23;;;;;;;9.68;8.63;;;26.60;99.90;;;;;;4980509;28;20496;-83
2023/09/11 10:13:11;;;;;;;12.38;8.70;;;26.70;99.90;;;;;;4964126;28;20039;-83
2023/09/11 10:15:39;;;;;;;9.65;6.63;;;26.60;99.90;;;;;;5001688;28;20422;-84
2023/09/11 10:18:06;;;;;;;10.15;8.30;;;26.80;99.90;;;;;;4986338;28;20030;-84
2023/09/11 10:20:32;;;;;;;8.40;5.88;;;27.10;99.90;;;;;;4984632;28;20541;-83
2023/09/11 10:23:00;;;;;;;6.00;4.13;;;27.50;99.90;;;;;;5052752;28;20118;-83
2023/09/11 10:25:29;;;;;;;10.30;8.05;;;27.80;99.90;;;;;;4970259;28;20061;-82
2023/09/11 10:28:13;;;;;;;8.07;6.93;;;27.10;99.90;;;;;;4981367;28;20046;-85
2023/09/11 10:30:58;;;;;;;10.32;7.18;;;27.00;99.90;;;;;;4967184;28;20448;-83
2023/09/11 10:33:26;;;;;;;9.98;8.02;;;27.00;99.90;;;;;;4970490;28;20362;-82
2023/09/11 10:35:59;;;;;;;12.90;7.45;;;26.90;99.90;;;;;;4988472;28;20053;-81
2023/09/11 10:38:30;;;;;;;12.05;7.82;;;27.20;99.90;;;;;;4952441;28;20027;-82
2023/09/11 10:40:59;;;;;;;13.23;7.35;;;27.30;99.90;;;;;;4965315;28;20034;-83
2023/09/11 10:43:25;;;;;;;10.32;8.35;;;27.40;99.90;;;;;;4970777;28;20381;-83
2023/09/11 10:45:52;;;;;;;9.07;7.90;;;27.30;99.90;;;;;;4982573;28;20039;-86
2023/09/11 10:48:28;;;;;;;9.48;6.30;;;27.30;99.90;;;;;;4954293;28;20026;-82
2023/09/11 10:50:56;;;;;;;8.73;5.90;;;27.30;99.90;;;;;;4969868;28;20135;-83
2023/09/11 10:53:28;;;;;;;9.18;5.72;;;27.50;99.90;;;;;;4949530;28;20042;-82
2023/09/11 10:55:57;;;;;;;7.00;5.10;;;27.60;99.90;;;;;;5051112;28;20069;-83
2023/09/11 10:58:25;;;;;;;6.95;4.88;;;27.60;99.90;;;;;;4954192;28;20034;-84
2023/09/11 11:00:55;;;;;;;6.13;5.47;;;27.60;99.90;;;;;;4970175;28;20046;-83
2023/09/11 11:03:30;;;;;;;5.93;4.45;;;27.70;99.90;;;;;;4954423;28;20444;-84
2023/09/11 11:06:01;;;;;;;9.60;5.97;;;28.00;99.90;;;;;;4967402;28;20030;-82
2023/09/11 11:08:31;;;;;;;6.22;4.18;;;27.80;99.90;;;;;;4953197;28;20102;-82
2023/09/11 11:11:00;;;;;;;10.18;5.38;;;27.80;99.90;;;;;;4970215;28;20051;-83
2023/09/11 11:13:25;;;;;;;5.77;4.20;;;27.70;99.90;;;;;;4987789;28;20043;-83
2023/09/11 11:16:19;;;;;;;6.22;3.60;;;27.60;99.90;;;;;;4975443;28;20034;-84
2023/09/11 11:18:45;;;;;;;8.48;4.50;;;27.80;99.90;;;;;;4963040;28;20031;-83
2023/09/11 11:21:10;;;;;;;6.43;3.78;;;28.00;99.90;;;;;;4967931;28;20367;-83
2023/09/11 11:23:57;;;;;;;6.97;4.50;;;28.20;99.90;;;;;;4964611;28;20027;-82
2023/09/11 11:26:27;;;;;;;6.38;3.88;;;27.80;99.90;;;;;;4973823;28;20117;-84
2023/09/11 11:28:52;;;;;;;5.32;2.70;;;28.00;99.90;;;;;;4966031;28;20035;-82
2023/09/11 11:31:22;;;;;;;6.40;2.95;;;28.20;99.90;;;;;;4953487;28;20035;-83
2023/09/11 11:33:52;;;;;;;4.90;3.25;;;28.40;99.90;;;;;;4967737;28;20296;-83
2023/09/11 11:36:19;;;;;;;6.18;3.03;;;28.20;99.90;;;;;;4987374;28;20050;-82
2023/09/11 11:38:46;;;;;;;5.55;3.33;;;28.20;99.90;;;;;;4987701;28;20469;-84
2023/09/11 11:41:13;;;;;;;6.43;2.60;;;28.30;99.90;;;;;;4965414;28;20034;-83
2023/09/11 11:43:42;;;;;;;5.25;2.85;;;28.20;99.90;;;;;;4969326;28;20026;-83
2023/09/11 11:46:10;;;;;;;6.05;3.10;;;28.20;99.90;;;;;;4966337;28;20033;-83
2023/09/11 11:48:37;;;;;;;6.18;3.20;;;28.40;99.90;;;;;;4986980;28;20019;-83
2023/09/11 11:51:03;;;;;;;6.47;2.72;;;28.20;99.90;;;;;;4986383;28;20095;-83
2023/09/11 11:53:31;;;;;;;4.03;2.35;;;28.20;99.90;;;;;;4970035;28;20034;-81
2023/09/11 11:55:58;;;;;;;7.93;3.40;;;28.30;99.90;;;;;;4984582;28;20038;-83
2023/09/11 11:58:25;;;;;;;6.60;3.97;;;28.30;99.90;;;;;;4965095;28;20395;-81
2023/09/11 12:00:59;;;;;;;5.13;3.47;;;28.20;99.90;;;;;;4969594;28;20026;-82
2023/09/11 12:03:33;;;;;;;5.07;3.15;;;28.60;99.90;;;;;;4983570;28;20026;-84
2023/09/11 12:06:00;;;;;;;5.57;4.07;;;28.80;99.90;;;;;;4986157;28;20121;-82
2023/09/11 12:08:27;;;;;;;6.47;3.20;;;28.50;99.90;;;;;;4969333;28;20033;-84
2023/09/11 12:10:53;;;;;;;7.05;4.55;;;28.70;99.90;;;;;;4986835;28;20042;-83
2023/09/11 12:13:23;;;;;;;7.25;3.90;;;28.50;99.90;;;;;;4969416;28;20061;-82
2023/09/11 12:15:57;;;;;;;6.93;3.67;;;28.30;99.90;;;;;;4981746;28;20026;-83
2023/09/11 12:18:24;;;;;;;4.43;3.08;;;28.40;99.90;;;;;;4966725;28;20387;-82
2023/09/11 12:21:05;;;;;;;7.00;3.40;;;28.50;99.90;;;;;;4968418;28;21987;-84
2023/09/11 12:23:30;;;;;;;7.38;3.60;;;28.40;99.90;;;;;;4952412;28;20034;-83
2023/09/11 12:25:57;;;;;;;4.78;2.65;;;28.40;99.90;;;;;;4984481;28;20035;-83
2023/09/11 12:28:24;;;;;;;5.60;3.60;;;28.70;99.90;;;;;;4964628;28;20046;-83
2023/09/11 12:30:50;;;;;;;4.05;2.63;;;28.40;99.90;;;;;;5048514;28;20030;-82
2023/09/11 12:33:22;;;;;;;4.43;2.47;;;28.30;99.90;;;;;;4985737;28;20034;-82
2023/09/11 12:35:55;;;;;;;4.28;2.03;;;28.60;99.90;;;;;;4968890;28;20034;-83
2023/09/11 12:38:22;;;;;;;5.10;3.05;;;28.50;99.90;;;;;;4986331;28;20035;-82
2023/09/11 12:40:48;;;;;;;4.45;3.17;;;28.30;99.90;;;;;;4986919;28;20471;-85
2023/09/11 12:43:15;;;;;;;3.78;2.72;;;28.50;99.90;;;;;;4986297;28;20083;-84
2023/09/11 12:45:41;;;;;;;6.20;2.50;;;28.50;99.90;;;;;;4982257;28;20034;-83
2023/09/11 12:48:07;;;;;;;7.43;3.38;;;28.60;99.90;;;;;;4964030;28;20026;-87